Time;durP1;ratioP1;P1;durP2;ratioP2;P2;SDS_P1;SDS_P2;PMS_P1;PMS_P2;Temp;Humidity;BMP_temperature;BMP_pressure;BME280_temperature;BME280_humidity;BME280_pressure;Samples;Min_cycle;Max_cycle;Signal;HPM_P1;HPM_P2
2022/05/11 00:01:30;;;;;;;3.73;3.43;;;;;;;18.32;57.15;98832.00;5135283;27;42652;-76
2022/05/11 00:03:58;;;;;;;5.03;4.53;;;;;;;18.32;57.50;98837.34;5131598;27;42795;-76
2022/05/11 00:06:27;;;;;;;5.17;4.67;;;;;;;18.26;58.14;98828.09;5113304;28;42436;-77
2022/05/11 00:08:56;;;;;;;5.33;4.83;;;;;;;18.25;57.47;98831.75;5096428;28;40035;-77
2022/05/11 00:11:28;;;;;;;4.90;3.83;;;;;;;18.22;57.41;98833.88;5113061;28;42769;-77
2022/05/11 00:13:57;;;;;;;3.87;3.57;;;;;;;18.20;57.68;98831.31;5096377;28;43319;-76
2022/05/11 00:16:25;;;;;;;4.20;3.60;;;;;;;18.17;57.46;98837.00;5095930;28;42523;-76
2022/05/11 00:18:53;;;;;;;3.90;3.60;;;;;;;18.14;57.13;98839.97;5113484;28;41726;-76
2022/05/11 00:21:21;;;;;;;3.70;3.40;;;;;;;18.09;57.11;98842.22;5113259;28;41731;-77
2022/05/11 00:23:49;;;;;;;4.20;3.80;;;;;;;18.07;56.92;98838.81;5113367;28;42898;-76
2022/05/11 00:26:16;;;;;;;4.27;3.93;;;;;;;18.03;57.04;98845.47;5096065;28;42314;-77
2022/05/11 00:28:45;;;;;;;3.87;3.50;;;;;;;17.97;57.10;98843.34;5114527;28;40864;-76
2022/05/11 00:31:13;;;;;;;4.40;4.00;;;;;;;17.90;57.39;98836.88;5114399;27;42038;-76
2022/05/11 00:33:40;;;;;;;3.73;3.43;;;;;;;17.82;57.70;98828.69;5095922;28;42070;-76
2022/05/11 00:36:11;;;;;;;4.60;4.20;;;;;;;17.80;58.16;98833.38;5096047;28;43415;-76
2022/05/11 00:38:40;;;;;;;4.77;4.30;;;;;;;17.74;57.97;98831.25;5095976;28;38579;-76
2022/05/11 00:41:07;;;;;;;4.70;4.30;;;;;;;17.68;58.08;98827.28;5095817;28;40664;-76
2022/05/11 00:43:38;;;;;;;4.60;4.20;;;;;;;17.64;58.03;98830.41;5113853;28;43660;-76
2022/05/11 00:46:18;;;;;;;4.47;4.07;;;;;;;17.51;58.24;98825.31;5113287;28;42308;-77
2022/05/11 00:51:38;;;;;;;3.83;3.50;;;;;;;17.44;58.79;98819.63;5130623;27;42662;-77
2022/05/11 00:54:06;;;;;;;4.50;4.10;;;;;;;17.38;59.85;98809.50;5116443;27;41871;-76
2022/05/11 00:56:37;;;;;;;5.57;4.13;;;;;;;17.34;59.22;98808.09;5115269;27;41074;-76
2022/05/11 00:59:10;;;;;;;4.70;4.30;;;;;;;17.31;59.41;98810.22;5129858;27;40216;-76
2022/05/11 01:01:40;;;;;;;5.07;4.57;;;;;;;17.25;59.40;98800.91;5133432;27;41916;-76
2022/05/11 01:04:11;;;;;;;5.00;4.50;;;;;;;17.12;59.40;98786.94;5111716;28;42578;-76
2022/05/11 01:06:41;;;;;;;5.17;4.63;;;;;;;17.16;59.65;98799.91;5109803;28;42238;-77
2022/05/11 01:09:10;;;;;;;4.33;4.03;;;;;;;17.12;59.57;98805.66;5111783;28;42203;-76
2022/05/11 01:11:39;;;;;;;4.37;3.97;;;;;;;17.07;59.54;98799.88;5095160;28;42011;-76
2022/05/11 01:14:10;;;;;;;4.40;4.00;;;;;;;17.02;60.08;98802.13;5094846;28;42911;-76
2022/05/11 01:16:39;;;;;;;4.50;4.10;;;;;;;16.81;60.02;98783.50;5114898;27;42730;-77
2022/05/11 01:19:09;;;;;;;4.83;4.43;;;;;;;16.90;60.23;98801.41;5113444;28;40072;-78
2022/05/11 01:21:44;;;;;;;5.23;4.67;;;;;;;16.86;60.33;98803.50;5112589;28;41716;-77
2022/05/11 01:24:39;;;;;;;4.80;4.30;;;;;;;16.86;60.49;98798.16;5110338;28;42798;-76
2022/05/11 01:27:27;;;;;;;4.50;4.10;;;;;;;16.80;60.31;98809.41;5111838;28;42365;-76
2022/05/11 01:29:57;;;;;;;4.37;3.97;;;;;;;16.82;60.34;98806.56;5091698;28;40384;-77
2022/05/11 01:32:26;;;;;;;4.00;3.70;;;;;;;16.70;61.01;98797.81;5091313;28;42025;-76
2022/05/11 01:34:59;;;;;;;5.07;4.57;;;;;;;16.76;60.61;98813.31;5091409;28;43226;-76
2022/05/11 01:37:26;;;;;;;5.53;5.03;;;;;;;16.73;60.86;98810.91;5091370;28;43251;-76
2022/05/11 01:39:55;;;;;;;5.83;5.30;;;;;;;16.30;60.56;98740.81;5099679;27;40117;-76
2022/05/11 01:42:23;;;;;;;5.07;4.67;;;;;;;16.68;60.63;98809.66;5133036;27;43135;-76
2022/05/11 01:44:51;;;;;;;6.30;4.50;;;;;;;16.65;60.60;98816.09;5132500;27;43419;-76
2022/05/11 01:47:18;;;;;;;4.83;4.43;;;;;;;16.64;61.08;98805.53;5132644;27;43701;-76
2022/05/11 01:49:46;;;;;;;4.80;4.40;;;;;;;16.62;61.16;98799.44;5115213;27;39084;-76
2022/05/11 01:52:13;;;;;;;4.70;4.30;;;;;;;16.61;61.38;98798.59;5133645;27;42651;-76
2022/05/11 01:54:41;;;;;;;5.77;5.27;;;;;;;16.60;61.33;98796.06;5132779;27;44711;-76
2022/05/11 01:57:09;;;;;;;5.40;4.90;;;;;;;16.59;61.38;98797.03;5114656;27;42322;-76
2022/05/11 01:59:37;;;;;;;5.50;4.93;;;;;;;16.59;61.95;98789.84;5132363;27;40950;-76
2022/05/11 02:02:05;;;;;;;4.90;4.50;;;;;;;16.58;61.94;98793.50;5095838;27;40797;-76
2022/05/11 02:10:02;;;;;;;5.83;4.70;;;;;;;16.52;62.27;98784.22;5108687;28;39945;-77
2022/05/11 02:12:31;;;;;;;4.97;4.47;;;;;;;16.53;62.10;98785.06;5111587;28;40759;-76
2022/05/11 02:14:58;;;;;;;4.97;4.47;;;;;;;16.53;62.27;98785.06;5111432;28;42903;-76
2022/05/11 02:17:26;;;;;;;5.13;4.63;;;;;;;16.54;62.41;98786.75;5106661;27;41251;-76
2022/05/11 02:19:53;;;;;;;5.00;4.20;;;;;;;16.57;61.99;98788.31;5133372;27;40076;-76
2022/05/11 02:22:21;;;;;;;5.20;4.70;;;;;;;16.58;62.51;98788.16;5131461;27;42709;-76
2022/05/11 02:24:49;;;;;;;5.30;4.80;;;;;;;16.63;63.32;98785.13;5131698;27;41980;-76
2022/05/11 02:27:17;;;;;;;5.20;4.77;;;;;;;16.64;62.69;98787.66;5114432;27;43297;-76
2022/05/11 02:29:45;;;;;;;5.33;4.83;;;;;;;16.66;62.98;98777.69;5132099;27;39734;-76
2022/05/11 02:32:13;;;;;;;4.90;4.50;;;;;;;16.78;62.99;98779.28;5114576;27;41025;-76
2022/05/11 02:37:25;;;;;;;5.97;5.37;;;;;;;16.86;63.07;98770.56;5131601;27;43364;-76
2022/05/11 02:39:52;;;;;;;5.97;5.47;;;;;;;16.91;62.94;98778.19;5114512;27;39259;-76
2022/05/11 02:42:20;;;;;;;4.97;4.47;;;;;;;16.94;63.45;98783.25;5113912;27;42704;-77
2022/05/11 02:44:49;;;;;;;5.70;5.20;;;;;;;16.94;63.21;98781.41;5131336;27;43967;-76
2022/05/11 02:47:17;;;;;;;4.77;4.20;;;;;;;16.91;63.28;98781.69;5131007;27;43173;-76
2022/05/11 02:49:46;;;;;;;4.80;4.40;;;;;;;16.87;63.09;98789.16;5114345;27;41051;-77
2022/05/11 02:52:14;;;;;;;6.37;4.70;;;;;;;16.82;63.62;98783.34;5113983;27;41436;-76
2022/05/11 02:54:42;;;;;;;6.93;5.37;;;;;;;16.81;63.48;98787.00;5114134;27;41748;-76
2022/05/11 02:57:10;;;;;;;5.93;5.37;;;;;;;16.81;63.18;98780.84;5114363;27;44260;-77
2022/05/11 02:59:37;;;;;;;5.10;4.57;;;;;;;16.78;63.42;98784.63;5132664;27;40538;-77
2022/05/11 03:02:07;;;;;;;5.23;4.80;;;;;;;16.77;63.26;98788.28;5131280;27;41876;-78
2022/05/11 03:04:34;;;;;;;4.97;4.50;;;;;;;16.76;63.07;98785.75;5124487;27;42765;-76
2022/05/11 03:07:01;;;;;;;4.80;4.40;;;;;;;16.73;63.27;98778.81;5093629;28;42884;-76
2022/05/11 03:09:29;;;;;;;5.77;5.20;;;;;;;16.70;63.57;98787.13;5111986;27;40147;-76
2022/05/11 03:11:56;;;;;;;6.00;5.30;;;;;;;16.68;63.69;98782.91;5110072;28;41847;-76
2022/05/11 03:14:24;;;;;;;5.53;5.03;;;;;;;16.56;64.07;98760.75;5111845;27;42818;-77
2022/05/11 03:16:51;;;;;;;5.33;4.83;;;;;;;16.65;64.52;98773.31;5119457;27;43227;-76
2022/05/11 03:19:21;;;;;;;5.83;5.23;;;;;;;16.66;64.36;98772.34;5114044;27;39669;-76
2022/05/11 03:21:48;;;;;;;5.60;5.10;;;;;;;16.65;64.73;98764.47;5131477;27;42463;-76
2022/05/11 03:24:16;;;;;;;6.07;5.47;;;;;;;16.68;64.12;98773.06;5113519;27;42144;-76
2022/05/11 03:26:43;;;;;;;6.40;5.80;;;;;;;16.69;64.52;98774.72;5118679;27;43362;-76
2022/05/11 03:29:11;;;;;;;5.90;5.30;;;;;;;16.67;64.50;98776.72;5110463;28;38949;-76
2022/05/11 03:31:40;;;;;;;5.17;4.70;;;;;;;16.62;64.86;98762.88;5110128;28;41657;-76
2022/05/11 03:36:55;;;;;;;6.70;5.57;;;;;;;16.56;65.58;98762.56;5112679;28;43223;-76
2022/05/11 03:39:22;;;;;;;5.83;5.33;;;;;;;16.51;65.67;98761.13;5115257;28;41012;-76
2022/05/11 03:41:50;;;;;;;5.50;5.00;;;;;;;16.43;65.45;98752.13;5113662;28;40661;-76
2022/05/11 03:44:18;;;;;;;6.30;5.77;;;;;;;16.46;65.48;98763.34;5096612;28;44253;-76
2022/05/11 03:46:45;;;;;;;5.40;4.73;;;;;;;16.44;65.50;98759.97;5113544;28;42902;-76
2022/05/11 03:49:14;;;;;;;5.60;4.90;;;;;;;16.44;65.31;98757.28;5113802;28;39809;-76
2022/05/11 03:51:41;;;;;;;5.87;5.27;;;;;;;16.46;66.02;98759.84;5113367;28;42776;-76
2022/05/11 03:54:10;;;;;;;6.53;5.90;;;;;;;16.40;66.87;98747.03;5113564;28;44846;-76
2022/05/11 03:56:38;;;;;;;5.50;5.00;;;;;;;16.46;66.63;98757.16;5096108;28;42445;-76
2022/05/11 03:59:06;;;;;;;6.17;5.57;;;;;;;16.50;66.12;98758.59;5095715;28;38994;-76
2022/05/11 04:01:33;;;;;;;6.37;5.53;;;;;;;16.53;66.39;98755.66;5096187;28;40706;-76
2022/05/11 04:04:02;;;;;;;6.50;5.90;;;;;;;16.45;66.03;98745.63;5093286;28;43296;-76
2022/05/11 04:06:29;;;;;;;6.37;5.77;;;;;;;16.60;66.01;98770.16;5094168;28;43241;-76
2022/05/11 04:08:58;;;;;;;6.00;5.40;;;;;;;16.61;66.13;98766.50;5092803;28;40265;-76
2022/05/11 04:11:28;;;;;;;6.63;5.60;;;;;;;16.65;65.60;98767.97;5099667;27;41805;-76
2022/05/11 04:13:57;;;;;;;6.63;5.87;;;;;;;16.71;65.37;98767.41;5108514;28;43937;-76
2022/05/11 04:16:25;;;;;;;5.70;5.03;;;;;;;16.72;65.91;98757.56;5109082;28;40906;-76
2022/05/11 04:18:52;;;;;;;6.30;5.70;;;;;;;16.74;65.95;98740.41;5104205;27;40879;-76
2022/05/11 04:21:20;;;;;;;5.70;5.20;;;;;;;16.96;65.75;98765.22;5108081;28;41824;-76
2022/05/11 04:23:48;;;;;;;6.50;5.90;;;;;;;17.06;65.95;98766.09;5092803;28;44562;-76
2022/05/11 04:26:15;;;;;;;5.87;5.27;;;;;;;17.11;66.04;98742.44;5091585;28;42391;-76
2022/05/11 04:28:44;;;;;;;5.70;5.17;;;;;;;17.29;65.38;98764.00;5092127;28;42203;-76
2022/05/11 04:31:13;;;;;;;5.87;5.27;;;;;;;17.40;65.30;98759.34;5093671;28;41474;-76
2022/05/11 04:33:42;;;;;;;6.33;5.73;;;;;;;17.56;65.01;98766.78;5075302;28;44978;-76
2022/05/11 04:36:09;;;;;;;5.33;4.83;;;;;;;17.59;65.56;98748.63;5074987;28;42254;-76
2022/05/11 04:38:37;;;;;;;5.30;4.80;;;;;;;17.80;64.77;98766.41;5092454;28;40136;-76
2022/05/11 04:41:04;;;;;;;5.83;5.33;;;;;;;17.92;64.69;98766.09;5101357;27;41873;-76
2022/05/11 04:43:32;;;;;;;5.93;5.33;;;;;;;18.01;64.37;98761.69;5088331;28;44277;-76
2022/05/11 04:46:01;;;;;;;5.70;5.20;;;;;;;18.09;64.20;98767.16;5092726;28;42254;-76
2022/05/11 04:48:29;;;;;;;5.40;4.90;;;;;;;18.18;64.13;98766.28;5075487;28;41669;-77
2022/05/11 04:51:01;;;;;;;5.37;4.87;;;;;;;18.33;63.90;98773.84;5092260;28;41917;-76
2022/05/11 04:53:29;;;;;;;5.17;4.67;;;;;;;18.43;64.06;98769.31;5104212;27;43958;-76
2022/05/11 04:55:58;;;;;;;5.00;4.60;;;;;;;18.52;63.59;98768.44;5132718;27;42214;-76
2022/05/11 04:58:26;;;;;;;5.30;4.83;;;;;;;18.60;63.44;98776.59;5126569;27;39881;-76
2022/05/11 05:00:54;;;;;;;5.30;4.80;;;;;;;18.58;63.46;98771.38;5095518;28;41561;-76
2022/05/11 05:03:24;;;;;;;5.20;4.67;;;;;;;18.71;62.83;98768.38;5108719;28;43769;-76
2022/05/11 05:05:51;;;;;;;4.83;4.43;;;;;;;18.78;62.83;98772.16;5091302;28;43245;-77
2022/05/11 05:08:19;;;;;;;5.60;4.73;;;;;;;18.82;62.82;98776.22;5091107;28;40646;-76
2022/05/11 05:10:47;;;;;;;4.30;3.90;;;;;;;18.89;62.93;98782.69;5090780;28;42678;-76
2022/05/11 05:13:15;;;;;;;5.17;4.77;;;;;;;18.94;62.35;98783.06;5092189;28;43374;-76
2022/05/11 05:15:43;;;;;;;5.40;4.70;;;;;;;18.97;62.52;98768.50;5083872;28;41082;-76
2022/05/11 05:18:11;;;;;;;6.17;4.93;;;;;;;19.07;62.21;98784.53;5113059;27;41060;-76
2022/05/11 05:20:40;;;;;;;5.17;4.67;;;;;;;19.13;61.80;98781.25;5112444;28;42535;-76
2022/05/11 05:23:08;;;;;;;5.30;4.80;;;;;;;19.13;62.17;98770.53;5112429;28;43172;-76
2022/05/11 05:25:36;;;;;;;5.30;4.80;;;;;;;19.24;61.70;98781.88;5094217;28;42417;-76
2022/05/11 05:31:06;;;;;;;5.00;4.40;;;;;;;19.34;61.65;98790.72;5094631;28;40124;-75
2022/05/11 05:33:35;;;;;;;7.00;4.73;;;;;;;19.40;61.18;98794.63;5111605;28;43840;-77
2022/05/11 05:36:05;;;;;;;5.47;4.63;;;;;;;19.47;61.26;98795.69;5094793;28;42102;-76
2022/05/11 05:38:33;;;;;;;5.83;4.70;;;;;;;19.54;60.85;98809.38;5094583;28;39626;-77
2022/05/11 05:41:01;;;;;;;5.00;4.50;;;;;;;19.65;60.93;98801.13;5111639;28;40959;-76
2022/05/11 05:43:29;;;;;;;5.70;5.20;;;;;;;19.52;60.65;98763.03;5112407;28;42709;-76
2022/05/11 05:45:56;;;;;;;5.80;5.30;;;;;;;19.89;60.24;98803.16;5094584;28;41990;-77
2022/05/11 05:48:25;;;;;;;6.03;5.40;;;;;;;20.07;59.96;98791.34;5111712;28;39270;-79
2022/05/11 05:50:53;;;;;;;5.40;4.87;;;;;;;20.34;59.52;98800.28;5111700;28;42507;-76
2022/05/11 05:53:22;;;;;;;5.60;5.10;;;;;;;20.60;58.99;98803.81;5111371;28;42911;-77
2022/05/11 05:55:50;;;;;;;5.50;4.87;;;;;;;20.74;58.69;98805.91;5107392;28;42232;-76
2022/05/11 05:58:18;;;;;;;4.87;4.47;;;;;;;20.85;58.07;98807.47;5112680;28;40035;-76
2022/05/11 06:00:47;;;;;;;5.00;4.60;;;;;;;20.92;57.82;98808.50;5111401;28;41435;-77
2022/05/11 06:03:19;;;;;;;5.23;4.73;;;;;;;21.09;57.54;98807.53;5093198;28;41798;-77
2022/05/11 06:05:47;;;;;;;5.00;4.57;;;;;;;21.30;56.86;98806.28;5087502;28;43365;-78
2022/05/11 06:08:16;;;;;;;4.60;4.20;;;;;;;21.42;56.47;98797.72;5093726;27;41875;-77
2022/05/11 06:10:46;;;;;;;4.97;4.50;;;;;;;21.54;56.08;98814.41;5113696;27;41829;-77
2022/05/11 06:13:15;;;;;;;5.53;4.90;;;;;;;21.70;56.28;98809.03;5094404;28;42957;-76
2022/05/11 06:15:44;;;;;;;4.53;4.13;;;;;;;21.94;55.12;98820.84;5085274;28;42142;-77
2022/05/11 06:18:12;;;;;;;4.90;4.40;;;;;;;22.14;54.79;98814.09;5108576;28;39837;-78
2022/05/11 06:20:40;;;;;;;5.33;4.83;;;;;;;22.31;54.62;98815.78;5093530;28;41568;-78
2022/05/11 06:23:08;;;;;;;5.10;4.70;;;;;;;22.43;54.62;98813.56;5111089;28;43305;-78
2022/05/11 06:25:38;;;;;;;5.80;4.53;;;;;;;22.55;54.28;98818.44;5106930;28;43253;-78
2022/05/11 06:28:08;;;;;;;4.53;4.23;;;;;;;22.68;54.33;98820.59;5110597;28;40468;-81
2022/05/11 06:30:36;;;;;;;5.00;4.53;;;;;;;22.82;54.50;98811.78;5111962;28;41473;-79
2022/05/11 06:33:04;;;;;;;4.70;4.20;;;;;;;23.02;53.63;98820.31;5111835;28;42796;-82
2022/05/11 06:35:32;;;;;;;5.77;4.37;;;;;;;23.25;52.84;98820.34;5094782;28;42361;-79
2022/05/11 06:38:03;;;;;;;4.43;4.00;;;;;;;23.57;51.30;98822.06;5112886;28;40314;-83
2022/05/11 06:40:31;;;;;;;4.30;4.00;;;;;;;23.82;50.52;98833.56;5111945;28;42312;-82
2022/05/11 06:43:01;;;;;;;4.40;4.00;;;;;;;24.09;50.02;98837.56;5094625;28;42725;-82
2022/05/11 06:45:30;;;;;;;3.60;3.30;;;;;;;24.34;48.85;98826.38;5087433;28;41559;-80
2022/05/11 06:47:58;;;;;;;3.60;3.30;;;;;;;24.61;47.17;98838.44;5116777;28;40690;-81
2022/05/11 06:50:26;;;;;;;3.10;2.90;;;;;;;24.88;46.55;98849.66;5110565;28;40956;-81
2022/05/11 06:52:54;;;;;;;3.23;2.93;;;;;;;25.05;45.84;98852.03;5126911;28;43561;-83
2022/05/11 07:00:54;;;;;;;3.60;3.10;;;;;;;25.12;44.97;98854.81;5120226;28;42451;-76
2022/05/11 07:03:21;;;;;;;3.13;2.87;;;;;;;25.27;45.43;98843.94;5104002;28;43700;-78
2022/05/11 07:05:49;;;;;;;3.67;3.37;;;;;;;25.46;45.13;98848.78;5117428;28;42618;-78
2022/05/11 07:08:16;;;;;;;3.30;3.00;;;;;;;25.69;44.04;98851.38;5109545;28;39084;-78
2022/05/11 07:12:17;;;;;;;3.53;3.23;;;;;;;25.76;44.46;98857.69;5110190;28;41701;-77
2022/05/11 07:13:32;;;;;;;4.10;3.27;;;;;;;25.79;43.16;98851.03;5093341;28;41618;-80
2022/05/11 07:16:01;;;;;;;3.40;3.07;;;;;;;25.98;42.80;98848.50;5093382;28;43494;-82
2022/05/11 07:18:29;;;;;;;3.27;2.83;;;;;;;26.54;41.82;98862.19;5112586;28;39884;-81
2022/05/11 07:20:56;;;;;;;4.20;3.30;;;;;;;26.39;40.45;98856.00;5093183;28;42714;-79
2022/05/11 07:23:25;;;;;;;3.13;2.93;;;;;;;26.41;41.54;98856.66;5110701;28;42811;-86
2022/05/11 07:25:53;;;;;;;3.47;3.17;;;;;;;26.52;41.09;98866.97;5109950;28;42099;-78
2022/05/11 07:28:22;;;;;;;3.50;3.20;;;;;;;26.87;41.47;98834.38;5110375;28;39089;-79
2022/05/11 07:30:51;;;;;;;3.00;2.70;;;;;;;27.22;40.55;98846.94;5092883;28;41783;-78
2022/05/11 07:33:20;;;;;;;3.60;3.30;;;;;;;27.20;40.62;98843.56;5112199;28;42665;-78
2022/05/11 07:35:47;;;;;;;3.67;3.43;;;;;;;27.22;40.22;98844.22;5111492;28;42346;-82
2022/05/11 07:38:18;;;;;;;3.47;3.07;;;;;;;27.24;41.09;98844.00;5110723;28;40474;-80
2022/05/11 07:40:46;;;;;;;4.57;3.57;;;;;;;27.35;40.09;98846.97;5092822;28;40757;-80
2022/05/11 07:43:14;;;;;;;2.70;2.50;;;;;;;27.37;40.27;98833.19;5109971;28;42693;-80
2022/05/11 07:45:42;;;;;;;2.97;2.77;;;;;;;27.59;41.58;98814.84;5109554;28;43893;-76
2022/05/11 07:48:10;;;;;;;7.60;3.40;;;;;;;27.84;39.97;98840.47;5093544;28;39828;-81
2022/05/11 07:50:39;;;;;;;3.57;3.30;;;;;;;27.92;38.79;98850.34;5110123;28;42880;-79
2022/05/11 07:53:07;;;;;;;3.47;3.17;;;;;;;28.04;38.30;98819.56;5109781;28;42890;-77
2022/05/11 07:55:36;;;;;;;3.37;3.17;;;;;;;28.71;37.95;98853.06;5111113;28;42728;-78
2022/05/11 08:00:49;;;;;;;3.30;3.10;;;;;;;29.56;36.60;98849.28;5106511;28;41972;-80
2022/05/11 08:03:16;;;;;;;3.93;3.10;;;;;;;29.90;35.85;98856.25;5092859;28;42836;-80
2022/05/11 08:05:45;;;;;;;3.80;3.40;;;;;;;30.13;34.64;98856.53;5111059;28;42936;-82
2022/05/11 08:08:13;;;;;;;3.20;3.00;;;;;;;30.39;35.33;98846.44;5111325;28;39960;-78
2022/05/11 08:10:43;;;;;;;3.10;2.90;;;;;;;30.52;34.77;98835.41;5092732;28;40739;-81
2022/05/11 08:13:12;;;;;;;3.23;2.93;;;;;;;30.60;33.85;98852.38;5111344;28;42832;-82
2022/05/11 08:15:43;;;;;;;2.50;2.40;;;;;;;30.56;34.38;98853.03;5109649;28;42270;-83
2022/05/11 08:18:12;;;;;;;2.90;2.57;;;;;;;30.90;33.86;98844.31;5112520;27;39935;-81
2022/05/11 08:20:43;;;;;;;3.37;3.17;;;;;;;31.77;32.17;98864.94;5112879;28;43497;-80
2022/05/11 08:23:13;;;;;;;3.00;2.70;;;;;;;32.48;30.92;98858.63;5113272;28;43144;-81
2022/05/11 08:25:43;;;;;;;3.83;3.10;;;;;;;32.95;30.83;98872.38;5114308;28;42929;-78
2022/05/11 08:28:13;;;;;;;3.30;3.10;;;;;;;33.45;29.56;98869.91;5113055;28;39015;-78
2022/05/11 08:33:27;;;;;;;3.57;3.27;;;;;;;34.53;27.57;98877.19;5096094;28;41791;-79
2022/05/11 08:35:58;;;;;;;3.23;2.93;;;;;;;35.01;27.17;98884.00;5114159;28;42203;-82
2022/05/11 08:38:29;;;;;;;3.00;2.70;;;;;;;35.77;26.32;98871.28;5096769;28;41059;-82
2022/05/11 08:41:01;;;;;;;3.63;2.87;;;;;;;36.79;25.73;98880.53;5114892;28;41782;-81
2022/05/11 08:43:31;;;;;;;4.97;3.17;;;;;;;37.88;23.83;98896.31;5096280;28;41794;-79
2022/05/11 08:46:07;;;;;;;3.33;2.73;;;;;;;38.74;23.27;98896.47;5109820;28;42602;-80
2022/05/11 08:48:40;;;;;;;2.92;2.63;;;;;;;39.12;23.65;98879.28;5096305;28;39755;-81
2022/05/11 08:51:13;;;;;;;2.35;2.25;;;;;;;38.73;22.78;98892.88;5109634;28;41545;-79
2022/05/11 08:53:42;;;;;;;2.63;2.42;;;;;;;38.21;23.51;98889.50;5087637;28;42761;-77
2022/05/11 08:56:15;;;;;;;3.05;2.85;;;;;;;37.70;23.43;98881.09;5101788;28;42114;-78
2022/05/11 08:58:49;;;;;;;3.03;2.83;;;;;;;36.95;24.06;98876.78;5095794;28;39918;-78
2022/05/11 09:01:22;;;;;;;2.27;2.17;;;;;;;36.48;25.21;98863.72;5095082;28;41794;-77
2022/05/11 09:03:54;;;;;;;2.93;2.73;;;;;;;36.27;25.71;98867.41;5109916;28;42584;-82
2022/05/11 09:06:26;;;;;;;2.87;2.70;;;;;;;36.32;25.80;98861.94;5109559;28;42658;-79
2022/05/11 09:08:57;;;;;;;2.90;2.70;;;;;;;36.47;26.36;98848.28;5111486;28;39920;-78
2022/05/11 09:11:29;;;;;;;2.90;2.70;;;;;;;36.57;25.69;98875.13;5109158;28;42659;-78
2022/05/11 09:13:58;;;;;;;2.80;2.53;;;;;;;36.43;25.95;98869.19;5109910;28;42788;-79
2022/05/11 09:16:29;;;;;;;3.37;3.17;;;;;;;35.90;25.91;98859.84;5113565;27;41998;-82
2022/05/11 09:18:57;;;;;;;2.70;2.50;;;;;;;35.36;26.46;98858.09;5096208;28;38572;-85
2022/05/11 09:21:31;;;;;;;3.27;2.57;;;;;;;35.22;26.12;98858.44;5111911;28;41675;-81
2022/05/11 09:24:13;;;;;;;2.97;2.53;;;;;;;35.40;26.19;98859.22;5096502;28;42903;-81
2022/05/11 09:27:01;;;;;;;2.70;2.50;;;;;;;35.31;26.66;98856.09;5111588;28;41406;-82
2022/05/11 09:29:35;;;;;;;3.13;2.93;;;;;;;35.15;26.56;98848.69;5113089;28;41537;-81
2022/05/11 09:32:24;;;;;;;3.07;2.87;;;;;;;35.38;26.22;98847.63;5108661;28;41623;-80
2022/05/11 09:34:52;;;;;;;3.47;3.17;;;;;;;35.41;25.80;98858.16;5112858;28;42542;-80
2022/05/11 09:37:29;;;;;;;3.00;2.80;;;;;;;35.49;26.03;98850.25;5111831;28;41788;-80
2022/05/11 09:40:12;;;;;;;3.57;3.27;;;;;;;35.87;26.40;98848.50;5109908;28;41002;-81
2022/05/11 09:42:51;;;;;;;3.37;3.07;;;;;;;35.97;25.20;98854.97;5075131;28;42095;-83
2022/05/11 09:45:39;;;;;;;2.73;2.43;;;;;;;36.06;25.18;98854.50;5091176;28;43742;-77
2022/05/11 09:48:20;;;;;;;2.70;2.50;;;;;;;36.11;24.97;98854.53;5112894;28;20229;-80
2022/05/11 09:50:53;;;;;;;2.97;2.50;;;;;;;36.06;25.06;98863.59;5094669;28;38821;-78
2022/05/11 09:53:27;;;;;;;6.63;2.67;;;;;;;35.88;25.52;98851.00;5094545;28;40594;-80
2022/05/11 09:55:57;;;;;;;3.00;2.80;;;;;;;35.57;26.03;98848.97;5109707;28;43699;-78
2022/05/11 09:58:30;;;;;;;2.97;2.67;;;;;;;35.36;26.03;98842.38;5094866;28;41257;-80
2022/05/11 10:01:11;;;;;;;2.97;2.77;;;;;;;35.31;26.03;98841.50;5103605;28;38854;-81
2022/05/11 10:03:45;;;;;;;4.10;2.50;;;;;;;35.51;25.75;98839.81;5091244;28;40718;-83
2022/05/11 10:06:15;;;;;;;3.63;3.37;;;;;;;35.93;25.15;98836.44;5088782;28;42948;-83
2022/05/11 10:08:45;;;;;;;3.23;3.03;;;;;;;36.82;23.68;98833.09;5092660;28;41526;-81
2022/05/11 10:11:18;;;;;;;3.00;2.80;;;;;;;38.26;22.57;98845.25;5111864;28;38922;-82
2022/05/11 10:13:53;;;;;;;2.90;2.65;;;;;;;39.64;21.76;98857.75;5109248;28;41527;-81
2022/05/11 10:22:12;;;;;;;2.70;2.50;;;;;;;40.61;19.85;98850.47;5108885;28;41977;-79
2022/05/11 10:25:09;;;;;;;2.67;2.33;;;;;;;41.08;20.39;98854.44;5094184;28;40738;-76
2022/05/11 10:27:43;;;;;;;2.55;2.35;;;;;;;41.03;20.70;98851.75;5097355;27;42953;-80
2022/05/11 10:30:33;;;;;;;2.08;1.70;;;;;;;40.75;20.97;98829.25;5110753;28;42043;-82
2022/05/11 10:33:16;;;;;;;2.88;2.40;;;;;;;40.80;20.67;98837.50;5111579;28;39699;-81
2022/05/11 10:35:57;;;;;;;2.50;2.40;;;;;;;41.72;19.95;98836.44;5108955;28;42104;-80
2022/05/11 10:38:54;;;;;;;2.67;2.47;;;;;;;42.47;18.85;98820.56;5094123;28;41702;-80
2022/05/11 10:41:29;;;;;;;3.00;2.58;;;;;;;42.41;19.53;98823.75;5094197;28;42568;-86
2022/05/11 10:44:03;;;;;;;2.70;2.50;;;;;;;41.85;18.52;98839.31;5093248;28;41585;-78
2022/05/11 10:46:37;;;;;;;4.32;2.33;;;;;;;40.43;19.55;98820.66;5110525;28;40491;-80
2022/05/11 10:49:25;;;;;;;3.30;2.53;;;;;;;39.46;20.87;98804.63;5102147;28;42652;-80
2022/05/11 10:52:01;;;;;;;3.28;2.70;;;;;;;39.79;20.87;98788.34;5073252;28;43377;-79
2022/05/11 10:54:36;;;;;;;2.47;2.38;;;;;;;40.29;21.06;98805.78;5096749;28;40733;-79
2022/05/11 10:57:10;;;;;;;2.90;2.47;;;;;;;40.22;21.22;98789.41;5109622;28;42768;-82
2022/05/11 11:00:03;;;;;;;2.83;2.63;;;;;;;39.92;21.48;98782.19;5107564;28;44051;-79
2022/05/11 11:03:00;;;;;;;5.10;2.58;;;;;;;39.42;20.87;98783.31;5109434;28;42305;-81
2022/05/11 11:05:33;;;;;;;3.47;2.85;;;;;;;39.26;21.75;98785.28;5094327;28;39346;-84
2022/05/11 11:08:12;;;;;;;2.63;2.42;;;;;;;39.35;19.95;98796.59;5110431;28;42027;-89
2022/05/11 11:10:46;;;;;;;2.72;2.33;;;;;;;39.78;20.22;98783.91;5108145;28;42639;-81
2022/05/11 11:13:34;;;;;;;2.60;2.40;;;;;;;38.80;20.35;98774.38;5110176;28;42151;-87
2022/05/11 11:16:04;;;;;;;3.35;2.72;;;;;;;38.47;21.13;98773.00;5110282;28;40954;-84
2022/05/11 11:18:38;;;;;;;2.53;2.33;;;;;;;38.92;21.01;98773.22;5110788;28;42145;-86
2022/05/11 11:21:09;;;;;;;2.92;2.30;;;;;;;38.75;21.16;98760.53;5098323;28;42660;-77
2022/05/11 11:23:39;;;;;;;2.90;2.40;;;;;;;38.57;20.98;98772.22;5089750;28;43402;-81
2022/05/11 11:26:10;;;;;;;3.42;2.70;;;;;;;38.48;21.18;98751.69;5082981;28;38600;-77
2022/05/11 11:29:19;;;;;;;2.70;2.50;;;;;;;38.57;20.79;98758.38;5093790;28;40626;-81
2022/05/11 11:32:08;;;;;;;3.55;2.30;;;;;;;38.22;21.63;98748.13;5109527;28;42987;-79
2022/05/11 11:34:38;;;;;;;3.22;2.60;;;;;;;38.48;22.00;98751.69;5092226;28;42272;-79
2022/05/11 11:37:42;;;;;;;2.90;2.70;;;;;;;38.82;22.10;98734.50;5110693;28;39633;-77
2022/05/11 11:40:22;;;;;;;2.67;2.47;;;;;;;39.35;19.71;98743.94;5089567;28;42227;-78
2022/05/11 11:42:51;;;;;;;3.10;2.80;;;;;;;39.71;20.38;98739.03;5088965;28;42963;-81
2022/05/11 11:45:52;;;;;;;3.15;2.80;;;;;;;40.41;19.35;98742.38;5074820;28;41293;-83
2022/05/11 11:48:24;;;;;;;2.83;2.38;;;;;;;41.30;20.23;98726.88;5088233;28;39574;-86
2022/05/11 11:50:54;;;;;;;2.60;2.40;;;;;;;42.19;20.44;98724.13;5073673;28;40610;-83
2022/05/11 11:53:25;;;;;;;2.22;2.03;;;;;;;43.27;17.70;98742.13;5071855;28;43361;-80
2022/05/11 11:55:53;;;;;;;2.83;2.63;;;;;;;44.37;16.52;98731.41;5101605;28;42295;-86
2022/05/11 11:58:28;;;;;;;2.47;2.25;;;;;;;45.44;15.76;98748.72;5108465;28;39850;-79
2022/05/11 12:01:20;;;;;;;2.60;2.40;;;;;;;46.47;14.64;98739.47;5112126;28;41738;-81
2022/05/11 12:03:58;;;;;;;2.40;2.20;;;;;;;47.29;14.88;98736.47;5113103;28;42557;-76
2022/05/11 12:15:02;;;;;;;2.42;1.70;;;;;;;49.40;12.46;98738.06;5109772;28;42841;-80
2022/05/11 12:17:37;;;;;;;2.50;2.30;;;;;;;49.26;12.29;98722.38;5095358;28;41181;-76
2022/05/11 12:20:11;;;;;;;2.00;1.90;;;;;;;48.37;12.42;98714.91;5111179;28;40869;-78
2022/05/11 12:22:42;;;;;;;2.47;2.33;;;;;;;47.85;13.01;98678.94;5115258;27;40546;-76
2022/05/11 12:25:29;;;;;;;2.25;2.15;;;;;;;48.25;12.40;98707.25;5109824;28;44049;-77
2022/05/11 12:27:58;;;;;;;2.00;1.90;;;;;;;48.15;12.37;98704.91;5113610;28;42306;-80
2022/05/11 12:30:29;;;;;;;2.88;2.67;;;;;;;48.69;12.98;98701.97;5112769;28;39186;-80
2022/05/11 12:33:00;;;;;;;2.22;2.03;;;;;;;48.68;12.47;98691.91;5095114;28;40561;-80
2022/05/11 12:35:33;;;;;;;2.03;1.92;;;;;;;48.70;12.46;98690.38;5095358;28;43156;-80